createdAt,value
2023-05-16T00:00:43.911Z,51.63
2023-05-16T00:03:12.437Z,52.03
2023-05-16T00:05:39.612Z,51.97
2023-05-16T00:08:06.674Z,52.87
2023-05-16T00:10:33.752Z,52.02
2023-05-16T00:13:02.254Z,52.27
2023-05-16T00:15:30.249Z,52.42
2023-05-16T00:18:00.431Z,53.72
2023-05-16T00:20:28.885Z,51.87
2023-05-16T00:22:56.414Z,51.17
2023-05-16T00:25:23.435Z,51.46
2023-05-16T00:27:50.590Z,52.09
2023-05-16T00:30:17.701Z,52.34
2023-05-16T00:32:44.848Z,52.57
2023-05-16T00:35:12.708Z,53.16
2023-05-16T00:37:39.825Z,51.71
2023-05-16T00:40:07.713Z,52.82
2023-05-16T00:42:36.176Z,52.24
2023-05-16T00:45:05.009Z,52.03
2023-05-16T00:47:32.613Z,52.41
2023-05-16T00:49:59.674Z,53.16
2023-05-16T00:52:26.808Z,52.75
2023-05-16T00:54:54.193Z,51.56
2023-05-16T00:57:21.552Z,50.41
2023-05-16T00:59:48.914Z,50.63
2023-05-16T01:02:17.705Z,50.42
2023-05-16T01:04:48.408Z,50.68
2023-05-16T01:07:15.609Z,50.67
2023-05-16T01:09:42.711Z,51.40
2023-05-16T01:12:16.347Z,51.17
2023-05-16T01:14:49.299Z,50.62
2023-05-16T01:17:33.911Z,50.14
2023-05-16T01:20:05.221Z,49.77
2023-05-16T01:22:51.610Z,49.77
2023-05-16T01:25:48.324Z,50.38
2023-05-16T01:28:17.722Z,50.03
2023-05-16T01:30:45.213Z,49.89
2023-05-16T01:33:12.570Z,50.77
2023-05-16T01:35:59.827Z,50.54
2023-05-16T01:38:33.372Z,51.57
2023-05-16T01:41:13.260Z,50.50
2023-05-16T01:43:46.662Z,50.59
2023-05-16T01:46:16.826Z,51.48
2023-05-16T01:48:47.936Z,51.50
2023-05-16T01:51:15.092Z,50.96
2023-05-16T01:53:45.472Z,50.36
2023-05-16T01:56:16.847Z,50.78
2023-05-16T01:58:44.980Z,51.82
2023-05-16T02:01:13.824Z,52.76
2023-05-16T02:03:40.798Z,52.69
2023-05-16T02:06:08.152Z,53.15
2023-05-16T02:08:35.329Z,54.09
2023-05-16T02:11:02.332Z,51.40
2023-05-16T02:13:29.372Z,52.35
2023-05-16T02:15:56.431Z,51.46
2023-05-16T02:18:23.855Z,51.66
2023-05-16T02:20:51.132Z,52.68
2023-05-16T02:23:18.354Z,52.49
2023-05-16T02:25:45.250Z,52.25
2023-05-16T02:28:12.248Z,52.37
2023-05-16T02:30:39.398Z,52.87
2023-05-16T02:33:06.497Z,53.59
2023-05-16T02:35:33.740Z,53.51
2023-05-16T02:38:00.794Z,52.66
2023-05-16T02:40:28.359Z,52.83
2023-05-16T02:42:56.575Z,53.89
2023-05-16T02:45:23.887Z,54.28
2023-05-16T02:47:51.013Z,53.89
2023-05-16T02:50:18.986Z,52.24
2023-05-16T02:52:46.210Z,52.64
2023-05-16T02:57:43.536Z,53.76
2023-05-16T03:00:13.078Z,54.09
2023-05-16T03:02:40.226Z,54.23
2023-05-16T03:05:08.803Z,52.06
2023-05-16T03:07:36.418Z,53.90
2023-05-16T03:10:06.290Z,53.49
2023-05-16T03:12:33.242Z,55.08
2023-05-16T03:15:00.185Z,54.46
2023-05-16T03:17:27.371Z,54.62
2023-05-16T03:19:54.506Z,54.95
2023-05-16T03:22:21.554Z,52.55
2023-05-16T03:24:48.850Z,52.66
2023-05-16T03:27:16.234Z,55.11
2023-05-16T03:29:43.239Z,55.17
2023-05-16T03:32:11.957Z,53.72
2023-05-16T03:34:38.969Z,54.83
2023-05-16T03:37:06.739Z,55.27
2023-05-16T03:39:34.024Z,55.27
2023-05-16T03:42:01.120Z,54.95
2023-05-16T03:44:28.153Z,55.15
2023-05-16T03:46:56.278Z,54.79
2023-05-16T03:49:28.594Z,55.78
2023-05-16T03:51:55.941Z,56.29
2023-05-16T03:54:23.094Z,56.20
2023-05-16T03:56:50.150Z,57.21
2023-05-16T03:59:17.145Z,55.13
2023-05-16T04:01:44.437Z,56.13
2023-05-16T04:04:11.334Z,56.42
2023-05-16T04:06:38.261Z,56.99
2023-05-16T04:09:06.648Z,56.73
2023-05-16T04:11:34.379Z,57.05
2023-05-16T04:14:01.927Z,57.85
2023-05-16T04:16:29.401Z,58.51
2023-05-16T04:18:56.932Z,58.95
2023-05-16T04:21:24.033Z,56.73
2023-05-16T04:23:51.198Z,57.34
2023-05-16T04:26:18.321Z,57.32
2023-05-16T04:28:45.306Z,57.83
2023-05-16T04:31:14.478Z,56.55
2023-05-16T04:33:41.669Z,55.30
2023-05-16T04:36:12.605Z,57.75
2023-05-16T04:38:39.675Z,56.90
2023-05-16T04:41:06.761Z,56.01
2023-05-16T04:43:33.877Z,55.89
2023-05-16T04:46:01.433Z,54.69
2023-05-16T04:48:28.480Z,55.90
2023-05-16T04:50:55.736Z,53.95
2023-05-16T04:53:22.785Z,52.44
2023-05-16T04:55:49.746Z,54.14
2023-05-16T04:58:16.881Z,53.72
2023-05-16T05:00:43.964Z,54.35
2023-05-16T05:03:11.143Z,53.96
2023-05-16T05:05:38.264Z,53.55
2023-05-16T05:08:05.546Z,53.42
2023-05-16T05:10:32.510Z,52.76
2023-05-16T05:12:59.621Z,51.76
2023-05-16T05:15:26.868Z,52.84
2023-05-16T05:17:54.376Z,51.91
2023-05-16T05:20:21.842Z,51.22
2023-05-16T05:22:49.028Z,50.72
2023-05-16T05:25:16.103Z,52.13
2023-05-16T05:27:43.177Z,50.97
2023-05-16T05:30:10.639Z,52.61
2023-05-16T05:32:37.949Z,51.31
2023-05-16T05:35:05.537Z,51.47
2023-05-16T05:37:32.738Z,51.20
2023-05-16T05:39:59.916Z,50.78
2023-05-16T05:42:26.907Z,50.80
2023-05-16T05:44:54.052Z,50.74
2023-05-16T05:47:21.848Z,51.38
2023-05-16T05:49:49.224Z,52.01
2023-05-16T05:52:16.496Z,51.09
2023-05-16T05:54:43.610Z,51.13
2023-05-16T05:57:10.692Z,51.74
2023-05-16T05:59:37.713Z,51.97
2023-05-16T06:02:05.093Z,51.46
2023-05-16T06:04:32.069Z,51.96
2023-05-16T06:06:59.434Z,53.57
2023-05-16T06:09:26.600Z,52.31
2023-05-16T06:11:53.592Z,53.99
2023-05-16T06:14:20.667Z,53.01
2023-05-16T06:16:47.749Z,53.74
2023-05-16T06:19:16.649Z,53.86
2023-05-16T06:21:44.181Z,54.02
2023-05-16T06:24:12.553Z,52.84
2023-05-16T06:26:39.771Z,54.11
2023-05-16T06:29:06.801Z,53.58
2023-05-16T06:31:33.830Z,53.20
2023-05-16T06:34:01.042Z,52.57
2023-05-16T06:36:28.083Z,53.17
2023-05-16T06:38:55.139Z,53.84
2023-05-16T06:41:22.439Z,53.99
2023-05-16T06:43:49.707Z,52.92
2023-05-16T06:46:16.947Z,53.17
2023-05-16T06:48:44.078Z,52.16
2023-05-16T06:51:11.223Z,51.19
2023-05-16T06:53:38.410Z,52.46
2023-05-16T06:56:05.988Z,52.64
2023-05-16T06:58:33.318Z,51.78
2023-05-16T07:01:00.640Z,50.43
2023-05-16T07:03:29.275Z,50.50
2023-05-16T07:05:57.411Z,50.69
2023-05-16T07:08:25.931Z,49.79
2023-05-16T07:10:52.964Z,51.28
2023-05-16T07:13:20.198Z,51.73
2023-05-16T07:15:47.250Z,50.90
2023-05-16T07:18:14.513Z,51.25
2023-05-16T07:20:42.007Z,51.61
2023-05-16T07:23:09.048Z,51.93
2023-05-16T07:25:36.966Z,51.08
2023-05-16T07:28:04.452Z,51.83
2023-05-16T07:30:31.752Z,50.58
2023-05-16T07:32:59.394Z,52.54
2023-05-16T07:35:26.782Z,54.64
2023-05-16T07:37:54.321Z,51.66
2023-05-16T07:40:26.014Z,52.57
2023-05-16T07:42:53.082Z,52.11
2023-05-16T07:45:20.209Z,53.86
2023-05-16T07:47:47.419Z,52.08
2023-05-16T07:50:14.787Z,52.87
2023-05-16T07:52:41.844Z,52.58
2023-05-16T07:55:09.534Z,51.53
2023-05-16T07:57:36.943Z,50.61
2023-05-16T08:00:04.492Z,50.67
2023-05-16T08:02:38.975Z,51.83
2023-05-16T08:05:06.811Z,51.28
2023-05-16T08:07:34.001Z,51.45
2023-05-16T08:10:01.209Z,53.33
2023-05-16T08:12:28.408Z,53.36
2023-05-16T08:14:55.633Z,52.57
2023-05-16T08:17:23.069Z,50.90
2023-05-16T08:19:50.305Z,52.52
2023-05-16T08:22:17.410Z,53.94
2023-05-16T08:24:44.596Z,51.18
2023-05-16T08:27:12.360Z,52.60
2023-05-16T08:29:39.539Z,51.06
2023-05-16T08:32:06.927Z,53.35
2023-05-16T08:34:34.201Z,52.96
2023-05-16T08:37:01.498Z,50.74
2023-05-16T08:39:30.767Z,51.07
2023-05-16T08:41:59.047Z,52.45
2023-05-16T08:44:26.767Z,50.64
2023-05-16T08:46:54.543Z,51.15
2023-05-16T08:49:21.684Z,52.71
2023-05-16T08:51:51.796Z,54.14
2023-05-16T08:54:18.973Z,54.83
2023-05-16T08:56:46.727Z,56.37
2023-05-16T08:59:14.155Z,56.04
2023-05-16T09:01:41.915Z,55.61
2023-05-16T09:04:10.506Z,56.79
2023-05-16T09:06:38.069Z,55.35
2023-05-16T09:09:08.254Z,56.82
2023-05-16T09:11:37.143Z,55.00
2023-05-16T09:14:05.873Z,55.66
2023-05-16T09:16:33.163Z,55.79
2023-05-16T09:19:02.186Z,54.29
2023-05-16T09:21:32.159Z,55.47
2023-05-16T09:24:09.516Z,54.11
2023-05-16T09:26:38.730Z,53.04
2023-05-16T09:29:14.686Z,55.98
2023-05-16T09:31:41.962Z,54.21
2023-05-16T09:34:15.806Z,53.91
2023-05-16T09:36:44.100Z,53.10
2023-05-16T09:39:12.412Z,52.55
2023-05-16T09:41:39.450Z,53.08
2023-05-16T09:44:07.127Z,52.96
2023-05-16T09:46:35.164Z,54.27
2023-05-16T09:49:03.261Z,52.39
2023-05-16T09:51:30.331Z,52.88
2023-05-16T09:53:59.271Z,52.69
2023-05-16T09:56:26.241Z,57.13
2023-05-16T09:58:53.503Z,54.40
2023-05-16T10:01:21.089Z,56.44
2023-05-16T10:03:48.628Z,57.62
2023-05-16T10:06:16.837Z,55.70
2023-05-16T10:08:44.616Z,56.74
2023-05-16T10:11:12.364Z,55.97
2023-05-16T10:13:39.928Z,56.90
2023-05-16T10:16:11.959Z,53.45
2023-05-16T10:18:40.648Z,53.17
2023-05-16T10:21:14.800Z,50.40
2023-05-16T10:23:43.752Z,52.92
2023-05-16T10:26:14.368Z,56.04
2023-05-16T10:28:42.698Z,52.82
2023-05-16T10:31:11.586Z,50.09
2023-05-16T10:33:39.871Z,50.82
2023-05-16T10:36:09.621Z,49.35
2023-05-16T10:38:38.843Z,50.59
2023-05-16T10:41:07.746Z,49.76
2023-05-16T10:43:34.932Z,50.10
2023-05-16T10:46:07.928Z,49.31
2023-05-16T10:48:40.043Z,48.24
2023-05-16T10:51:34.846Z,46.97
2023-05-16T10:54:15.004Z,48.82
2023-05-16T10:56:43.546Z,47.99
2023-05-16T10:59:24.500Z,51.40
2023-05-16T11:01:56.619Z,48.15
2023-05-16T11:04:24.193Z,48.23
2023-05-16T11:06:53.227Z,48.21
2023-05-16T11:09:27.857Z,46.19
2023-05-16T11:11:59.410Z,51.48
2023-05-16T11:14:32.678Z,47.39
2023-05-16T11:17:16.545Z,48.45
2023-05-16T11:19:47.521Z,48.04
2023-05-16T11:22:35.169Z,47.15
2023-05-16T11:25:03.478Z,48.78
2023-05-16T11:27:42.106Z,48.19
2023-05-16T11:30:15.619Z,48.67
2023-05-16T11:32:45.472Z,45.42
2023-05-16T11:35:15.612Z,49.46
2023-05-16T11:37:44.342Z,47.49
2023-05-16T11:40:13.854Z,44.23
2023-05-16T11:42:46.439Z,49.02
2023-05-16T11:45:25.816Z,46.16
2023-05-16T11:47:53.244Z,48.14
2023-05-16T11:50:26.600Z,46.84
2023-05-16T11:52:56.445Z,44.32
2023-05-16T11:55:40.467Z,43.52
2023-05-16T11:58:10.470Z,45.01
2023-05-16T12:00:37.677Z,43.69
2023-05-16T12:03:06.187Z,44.92
2023-05-16T12:05:35.291Z,45.21
2023-05-16T12:08:05.816Z,44.74
2023-05-16T12:10:34.958Z,44.88
2023-05-16T12:13:03.881Z,47.23
2023-05-16T12:15:31.493Z,46.63
2023-05-16T12:17:59.593Z,47.06
2023-05-16T12:20:27.057Z,49.65
2023-05-16T12:22:58.145Z,50.91
2023-05-16T12:25:29.832Z,51.12
2023-05-16T12:28:02.159Z,49.36
2023-05-16T12:30:31.736Z,49.56
2023-05-16T12:33:07.987Z,50.15
2023-05-16T12:35:38.139Z,51.33
2023-05-16T12:38:07.058Z,50.75
2023-05-16T12:40:34.513Z,52.77
2023-05-16T12:43:01.652Z,53.97
2023-05-16T12:45:29.357Z,52.28
2023-05-16T12:47:56.599Z,49.23
2023-05-16T12:50:26.848Z,46.82
2023-05-16T12:52:59.292Z,47.38
2023-05-16T12:55:29.915Z,47.60
2023-05-16T12:57:58.317Z,47.56
2023-05-16T13:00:25.679Z,47.67
2023-05-16T13:02:53.198Z,46.96
2023-05-16T13:05:22.450Z,46.17
2023-05-16T13:07:51.701Z,46.45
2023-05-16T13:10:19.381Z,46.96
2023-05-16T13:12:47.458Z,46.11
2023-05-16T13:15:15.356Z,48.91
2023-05-16T13:17:47.749Z,47.79
2023-05-16T13:20:16.299Z,46.32
2023-05-16T13:22:44.055Z,49.27
2023-05-16T13:25:11.868Z,50.07
2023-05-16T13:27:40.489Z,48.00
2023-05-16T13:30:08.156Z,47.54
2023-05-16T13:32:35.435Z,47.46
2023-05-16T13:35:04.311Z,48.41
2023-05-16T13:37:31.970Z,48.13
2023-05-16T13:39:59.279Z,47.45
2023-05-16T13:42:26.488Z,48.70
2023-05-16T13:44:53.597Z,51.75
2023-05-16T13:47:21.066Z,52.55
2023-05-16T13:49:49.175Z,53.85
2023-05-16T13:52:16.589Z,52.70
2023-05-16T13:54:43.635Z,53.96
2023-05-16T13:57:10.847Z,52.69
2023-05-16T14:00:05.664Z,54.20
2023-05-16T14:02:26.519Z,50.05
2023-05-16T14:04:54.369Z,50.64
2023-05-16T14:07:21.427Z,53.54
2023-05-16T14:09:48.467Z,53.98
2023-05-16T14:12:15.693Z,53.50
2023-05-16T14:14:42.793Z,53.60
2023-05-16T14:17:09.946Z,53.74
2023-05-16T14:19:37.414Z,52.78
2023-05-16T14:22:04.546Z,53.76
2023-05-16T14:24:31.593Z,53.45
2023-05-16T14:26:58.605Z,53.69
2023-05-16T14:29:25.937Z,53.34
2023-05-16T14:31:54.401Z,53.49
2023-05-16T14:34:22.548Z,52.95
2023-05-16T14:36:51.019Z,54.21
2023-05-16T14:39:18.128Z,55.71
2023-05-16T14:41:45.223Z,57.36
2023-05-16T14:44:12.840Z,57.27
2023-05-16T14:46:40.232Z,58.32
2023-05-16T14:49:07.667Z,59.90
2023-05-16T14:51:34.682Z,59.44
2023-05-16T14:54:01.824Z,60.56
2023-05-16T14:56:28.929Z,58.88
2023-05-16T14:58:56.291Z,59.91
2023-05-16T15:01:23.395Z,60.85
2023-05-16T15:03:55.529Z,60.45
2023-05-16T15:06:24.703Z,61.69
2023-05-16T15:08:52.080Z,60.30
2023-05-16T15:11:19.615Z,61.06
2023-05-16T15:13:46.876Z,55.94
2023-05-16T15:16:14.233Z,55.24
2023-05-16T15:18:41.974Z,57.45
2023-05-16T15:21:09.496Z,55.63
2023-05-16T15:23:36.838Z,55.15
2023-05-16T15:26:04.724Z,56.92
2023-05-16T15:28:31.895Z,54.06
2023-05-16T15:30:58.913Z,54.46
2023-05-16T15:33:27.653Z,53.52
2023-05-16T15:35:54.723Z,56.20
2023-05-16T15:38:21.976Z,57.38
2023-05-16T15:40:55.053Z,55.63
2023-05-16T15:43:28.615Z,59.06
2023-05-16T15:45:55.771Z,51.63
2023-05-16T15:48:22.932Z,52.35
2023-05-16T15:50:50.006Z,54.51
2023-05-16T15:53:17.075Z,56.41
2023-05-16T15:55:44.188Z,56.84
2023-05-16T15:58:11.236Z,54.36
2023-05-16T16:00:39.468Z,55.44
2023-05-16T16:03:07.108Z,55.08
2023-05-16T16:05:34.330Z,53.25
2023-05-16T16:08:01.449Z,54.07
2023-05-16T16:10:28.561Z,54.67
2023-05-16T16:13:05.236Z,54.81
2023-05-16T16:15:33.673Z,54.81
2023-05-16T16:18:01.565Z,55.58
2023-05-16T16:20:28.875Z,57.20
2023-05-16T16:22:56.337Z,56.57
2023-05-16T16:25:23.568Z,55.10
2023-05-16T16:27:51.368Z,56.52
2023-05-16T16:30:18.734Z,55.76
2023-05-16T16:32:48.840Z,55.82
2023-05-16T16:35:16.306Z,54.25
2023-05-16T16:37:51.632Z,55.66
2023-05-16T16:40:30.795Z,58.12
2023-05-16T16:42:58.048Z,56.84
2023-05-16T16:45:25.549Z,56.94
2023-05-16T16:47:53.412Z,57.11
2023-05-16T16:50:20.636Z,58.19
2023-05-16T16:52:47.950Z,58.90
2023-05-16T16:55:15.168Z,60.09
2023-05-16T16:57:42.735Z,59.67
2023-05-16T17:00:14.369Z,60.38
2023-05-16T17:02:41.794Z,60.69
2023-05-16T17:05:10.431Z,60.72
2023-05-16T17:07:37.654Z,60.80
2023-05-16T17:10:05.276Z,60.83
2023-05-16T17:12:34.539Z,60.95
2023-05-16T17:15:02.426Z,59.40
2023-05-16T17:17:29.612Z,60.92
2023-05-16T17:19:56.932Z,61.01
2023-05-16T17:22:23.971Z,60.71
2023-05-16T17:24:50.996Z,61.30
2023-05-16T17:27:18.157Z,61.66
2023-05-16T17:29:45.210Z,61.79
2023-05-16T17:32:12.358Z,62.08
2023-05-16T17:34:39.301Z,63.24
2023-05-16T17:37:11.569Z,64.80
2023-05-16T17:39:38.878Z,65.60
2023-05-16T17:42:06.206Z,65.10
2023-05-16T17:44:33.259Z,65.00
2023-05-16T17:47:00.435Z,67.26
2023-05-16T17:49:27.608Z,68.17
2023-05-16T17:51:56.854Z,66.40
2023-05-16T17:54:24.346Z,67.14
2023-05-16T17:56:51.475Z,67.60
2023-05-16T17:59:19.177Z,67.00
2023-05-16T18:01:46.754Z,66.65
2023-05-16T18:04:14.603Z,66.21
2023-05-16T18:06:42.099Z,66.06
2023-05-16T18:09:10.522Z,64.42
2023-05-16T18:11:40.731Z,65.69
2023-05-16T18:14:12.965Z,65.80
2023-05-16T18:16:40.164Z,65.75
2023-05-16T18:19:08.850Z,68.24
2023-05-16T18:21:37.625Z,69.31
2023-05-16T18:24:05.423Z,69.66
2023-05-16T18:26:32.475Z,67.97
2023-05-16T18:28:59.586Z,67.75
2023-05-16T18:31:26.871Z,66.98
2023-05-16T18:33:54.006Z,69.05
2023-05-16T18:36:21.161Z,69.41
2023-05-16T18:38:48.218Z,69.81
2023-05-16T18:41:17.844Z,68.86
2023-05-16T18:43:44.752Z,69.15
2023-05-16T18:46:11.859Z,69.02
2023-05-16T18:48:38.852Z,69.03
2023-05-16T18:51:06.400Z,69.95
2023-05-16T18:53:33.502Z,70.24
2023-05-16T18:56:00.657Z,70.39
2023-05-16T18:58:27.823Z,70.39
2023-05-16T19:00:54.795Z,70.47
2023-05-16T19:03:22.049Z,69.97
2023-05-16T19:05:49.581Z,70.98
2023-05-16T19:08:16.770Z,70.05
2023-05-16T19:10:43.906Z,69.92
2023-05-16T19:13:10.940Z,70.63
2023-05-16T19:15:38.628Z,71.18
2023-05-16T19:18:06.701Z,70.48
2023-05-16T19:20:34.967Z,70.16
2023-05-16T19:23:03.443Z,69.57
2023-05-16T19:25:30.774Z,69.10
2023-05-16T19:27:57.802Z,68.80
2023-05-16T19:30:25.397Z,70.90
2023-05-16T19:32:52.735Z,63.18
2023-05-16T19:35:19.944Z,63.43
2023-05-16T19:37:47.114Z,63.21
2023-05-16T19:40:16.983Z,63.45
2023-05-16T19:42:44.388Z,63.24
2023-05-16T19:45:11.775Z,64.47
2023-05-16T19:47:39.004Z,63.88
2023-05-16T19:50:07.196Z,64.46
2023-05-16T19:52:34.919Z,64.64
2023-05-16T19:55:02.920Z,64.61
2023-05-16T19:57:30.275Z,64.44
2023-05-16T19:59:57.483Z,66.27
2023-05-16T20:02:24.849Z,66.15
2023-05-16T20:04:52.115Z,66.38
2023-05-16T20:07:19.337Z,67.42
2023-05-16T20:09:46.397Z,68.08
2023-05-16T20:12:13.608Z,68.76
2023-05-16T20:14:40.755Z,68.80
2023-05-16T20:17:07.846Z,69.42
2023-05-16T20:19:36.645Z,70.23
2023-05-16T20:22:03.877Z,70.46
2023-05-16T20:24:30.914Z,70.94
2023-05-16T20:27:01.984Z,72.17
2023-05-16T20:29:31.331Z,72.50
2023-05-16T20:31:58.365Z,72.72
2023-05-16T20:34:26.332Z,73.72
2023-05-16T20:36:53.470Z,74.86
2023-05-16T20:39:20.674Z,75.43
2023-05-16T20:41:47.839Z,75.62
2023-05-16T20:44:15.876Z,75.41
2023-05-16T20:46:43.451Z,74.90
2023-05-16T20:49:10.896Z,75.05
2023-05-16T20:51:38.659Z,75.96
2023-05-16T20:54:05.820Z,75.83
2023-05-16T20:56:33.151Z,74.61
2023-05-16T20:59:00.553Z,73.53
2023-05-16T21:01:27.664Z,73.54
2023-05-16T21:03:54.632Z,73.91
2023-05-16T21:06:21.695Z,73.78
2023-05-16T21:08:48.750Z,73.14
2023-05-16T21:11:16.056Z,71.80
2023-05-16T21:13:43.161Z,72.71
2023-05-16T21:16:10.272Z,72.67
2023-05-16T21:18:37.718Z,72.75
2023-05-16T21:21:04.932Z,73.13
2023-05-16T21:23:32.027Z,72.70
2023-05-16T21:25:58.982Z,72.62
2023-05-16T21:28:31.148Z,72.59
2023-05-16T21:30:59.944Z,72.50
2023-05-16T21:33:26.992Z,72.52
2023-05-16T21:35:55.357Z,72.81
2023-05-16T21:38:22.497Z,73.17
2023-05-16T21:40:49.639Z,72.81
2023-05-16T21:43:17.157Z,73.21
2023-05-16T21:45:44.238Z,72.76
2023-05-16T21:48:11.404Z,73.13
2023-05-16T21:50:38.595Z,73.15
2023-05-16T21:53:05.585Z,72.67
2023-05-16T21:55:32.580Z,72.13
2023-05-16T21:57:59.562Z,72.16
2023-05-16T22:00:26.633Z,72.05
2023-05-16T22:02:53.874Z,72.57
2023-05-16T22:05:21.207Z,73.02
2023-05-16T22:07:48.375Z,72.89
2023-05-16T22:10:16.984Z,73.31
2023-05-16T22:12:47.585Z,73.24
2023-05-16T22:15:14.536Z,73.47
2023-05-16T22:17:42.051Z,72.94
2023-05-16T22:20:09.776Z,72.98
2023-05-16T22:22:37.411Z,73.11
2023-05-16T22:25:05.416Z,72.34
2023-05-16T22:27:32.469Z,71.75
2023-05-16T22:29:59.635Z,71.66
2023-05-16T22:32:28.243Z,71.64
2023-05-16T22:34:58.325Z,70.51
2023-05-16T22:37:25.529Z,70.93
2023-05-16T22:39:53.508Z,71.04
2023-05-16T22:42:20.504Z,70.63
2023-05-16T22:44:48.082Z,70.59
2023-05-16T22:47:15.287Z,70.80
2023-05-16T22:49:42.385Z,70.00
2023-05-16T22:52:09.468Z,69.98
2023-05-16T22:54:36.594Z,70.17
2023-05-16T22:57:07.052Z,70.16
2023-05-16T22:59:34.386Z,70.27
2023-05-16T23:02:01.607Z,70.26
2023-05-16T23:04:28.709Z,70.38
2023-05-16T23:06:55.796Z,70.88
2023-05-16T23:09:23.401Z,71.18
2023-05-16T23:11:50.766Z,71.15
2023-05-16T23:14:17.852Z,70.73
2023-05-16T23:16:44.910Z,70.94
2023-05-16T23:19:12.233Z,71.01
2023-05-16T23:21:40.250Z,70.47
2023-05-16T23:24:07.372Z,70.46
2023-05-16T23:26:34.535Z,71.05
2023-05-16T23:29:04.592Z,71.47
2023-05-16T23:31:34.492Z,70.36
2023-05-16T23:34:01.985Z,69.68
2023-05-16T23:36:29.347Z,70.36
2023-05-16T23:38:56.523Z,71.10
2023-05-16T23:41:23.854Z,70.58
2023-05-16T23:43:51.010Z,70.44
2023-05-16T23:46:18.139Z,71.17
2023-05-16T23:48:45.330Z,72.46
2023-05-16T23:51:12.359Z,72.60
2023-05-16T23:53:39.400Z,72.49
2023-05-16T23:56:06.541Z,72.49
2023-05-16T23:58:33.904Z,72.40
